General Aviation Weather

Text Reports

Enter one or more of the following location identifiers separated by a space:

Zip Code, Four-Character ICAO or Three-Character IATA airport codes.

METAR - Aviation Routine Weather Report
VTUW - Nakhon Phanom,
Updated at 9:00 AM GMT on April 20, 2014 (4:00 PM ICT):
METAR VTUW 200900Z 07004KT 7000 FEW028 SCT300 36/23 Q1003 A2964 RWY15 INFO G
TAF - Terminal Area Forecast
VTUW - Nakhon Phanom,
Updated at 9:00 AM GMT on April 20, 2014 (4:00 PM ICT):
TAF VTUW 202300Z NIL=
Decoded:
ID: VTUW
REPORT TIME: 20 23: 0
INITIAL WX
   WEATHER: NIL
   COMMENTS: = 

PIREP - Pilot Weather Report
VTUW - Nakhon Phanom,
Updated at 9:00 AM GMT on April 20, 2014 (4:00 PM ICT):
No PIREP is currently available for this location.
AIRMET - Airmens Meteorological Information
VTUW - Nakhon Phanom,
Updated at 9:00 AM GMT on April 20, 2014 (4:00 PM ICT):
No AIRMET is currently available for this location.
SIGMET - Significant Meteorological Information
VTUW - Nakhon Phanom,
Updated at 9:00 AM GMT on April 20, 2014 (4:00 PM ICT):
No SIGMET is currently available for this location.
NOTAM - Notice to Airmen
VTUW - Nakhon Phanom,
Updated at 9:00 AM GMT on April 20, 2014 (4:00 PM ICT):
No NOTAM is currently available for this location.
Forecast Area
VTUW - Nakhon Phanom,
Updated at 9:00 AM GMT on April 20, 2014 (4:00 PM ICT):
No NOTAM is currently available for this location.
Aviation Weather Maps